Aérodrome :
LOGIN :

S'inscrire | Disclaimer

   EN    FR    IT 

 










Légende :    VFR   VFR Marginal   IFR   IFR Intensif   IFR Très Intensif
Visi : 
Plafond : 
>= 8 km
>= 3000ft
5 à 8 km
1000 à 3000 ft
1500m à 5 km
500 à 1000 ft
800 à 1500m
200 à 500 ft
< 800m
< 200 ft
Symboles :   Orages  Brouillard  Fortes neiges  Fortes précipitations  Vent > 20 kt
SIGMETs :   Divers  Orages  Givrage  Turbulence  Onde Orograph.  Cendres Volcan.






- Altitude de l'aérodrome : 1115 ft
- Code IATA : GRZ


LOWG - Graz

DERNIER METAR :
  • 290450Z AUTO 35005KT 9999 -RA FEW005 BKN060 10/08 Q1013 NOSIG

METARs EXPIRÉS :
  • 290420Z AUTO 31003KT 9999 -RA FEW005 BKN050 11/08 Q1013 NOSIG
  • 290350Z AUTO VRB02KT 9999 FEW005 BKN045 11/08 Q1013 NOSIG
  • 290320Z AUTO 35004KT 320V020 9999 FEW005 SCT007 BKN050 10/09 Q1013
  • 290250Z AUTO 36004KT 9999 FEW004 BKN009 10/09 Q1013
  • 290220Z AUTO VRB02KT 9999 FEW003 BKN008 11/10 Q1013

TAF AMD TAF LOWG
Valide du 29 à 04h jusqu'au 30 à 00h UTC


290449Z 2904/2924 VRB05KT 9999 FEW020 BKN050 TX13/2911Z TN08/2924Z
TEMPO 2904/2918 -RA
TEMPO 2912/2916 4000 RA BKN014



MET'MAP, la Météo Aéronautique d'un coup d'oeil ! - Copyright ORBIFLY Décembre 2007 - Disclaimer

ORBIFLY MET'MAP TEAM :

Programmation & Développement : Alexandra Zaïnal
Sur une idée originale de : Baudouin d'Aumeries
Soutien technique & logistique : Manuel Goepfert
Assistance : Marc-Olivier Méhu

Contact : metmap@orbifly.com




SOURCES & CREDITS :

   NOAA